Time;durP1;ratioP1;P1;durP2;ratioP2;P2;SDS_P1;SDS_P2;PMS_P1;PMS_P2;Temp;Humidity;BMP_temperature;BMP_pressure;BME280_temperature;BME280_humidity;BME280_pressure;Samples;Min_cycle;Max_cycle;Signal;HPM_P1;HPM_P2
2022/02/02 00:01:06;;;;;;;3.87;2.70;;;;;;;6.60;100.00;97917.66;5100960;28;20252;-69
2022/02/02 00:03:33;;;;;;;3.33;2.60;;;;;;;6.60;100.00;97923.72;5101221;28;20217;-69
2022/02/02 00:06:08;;;;;;;5.93;2.90;;;;;;;6.66;100.00;97923.38;5104884;28;20249;-69
2022/02/02 00:08:46;;;;;;;4.37;2.97;;;;;;;6.67;100.00;97924.22;5101684;28;20614;-69
2022/02/02 00:14:16;;;;;;;4.33;2.97;;;;;;;6.77;100.00;97905.22;5096710;28;20571;-69
2022/02/02 00:16:50;;;;;;;5.80;2.97;;;;;;;6.79;100.00;97902.53;5099452;28;20772;-69
2022/02/02 00:19:26;;;;;;;4.60;3.00;;;;;;;6.82;100.00;97902.34;5101095;28;20259;-69
2022/02/02 00:21:58;;;;;;;4.47;2.50;;;;;;;6.84;100.00;97911.81;5104250;28;20217;-69
2022/02/02 00:24:33;;;;;;;3.10;2.20;;;;;;;6.87;100.00;97914.28;5099750;28;20222;-69
2022/02/02 00:27:04;;;;;;;5.10;2.00;;;;;;;6.87;100.00;97926.56;5100195;28;20623;-69
2022/02/02 00:29:35;;;;;;;3.53;2.20;;;;;;;6.87;100.00;97937.94;5103954;28;20241;-69
2022/02/02 00:32:09;;;;;;;3.40;2.20;;;;;;;6.90;100.00;97942.16;5102643;28;20249;-69
2022/02/02 00:34:36;;;;;;;2.43;2.20;;;;;;;6.93;100.00;97937.56;5093436;28;20217;-69
2022/02/02 00:37:02;;;;;;;3.30;2.03;;;;;;;6.94;100.00;97931.38;5100154;28;20215;-69
2022/02/02 00:39:31;;;;;;;3.50;2.10;;;;;;;6.99;100.00;97910.94;5103551;28;20228;-69
2022/02/02 00:41:58;;;;;;;3.47;2.30;;;;;;;7.00;100.00;97923.16;5101541;28;20212;-69
2022/02/02 00:44:26;;;;;;;2.83;1.87;;;;;;;6.99;100.00;97929.34;5100366;28;20220;-69
2022/02/02 00:46:54;;;;;;;3.93;2.37;;;;;;;6.92;100.00;97908.75;5100839;28;20212;-69
2022/02/02 00:49:21;;;;;;;3.90;2.70;;;;;;;6.84;100.00;97906.56;5103737;28;20246;-70
2022/02/02 00:51:49;;;;;;;6.37;2.57;;;;;;;6.80;100.00;97910.31;5101795;28;20210;-69
2022/02/02 00:54:18;;;;;;;3.13;2.30;;;;;;;6.77;100.00;97915.75;5093607;28;20288;-70
2022/02/02 00:56:46;;;;;;;5.37;2.90;;;;;;;6.75;100.00;97932.50;5101054;28;20220;-69
2022/02/02 00:59:13;;;;;;;3.23;2.70;;;;;;;6.76;100.00;97929.81;5103815;28;20681;-70
2022/02/02 01:01:40;;;;;;;4.27;3.00;;;;;;;6.76;100.00;97949.97;5101030;28;20667;-69
2022/02/02 01:04:07;;;;;;;5.30;3.00;;;;;;;6.76;100.00;97940.31;5091538;28;20213;-69
2022/02/02 01:06:38;;;;;;;6.37;2.70;;;;;;;6.80;100.00;97941.84;5100536;28;20224;-69
2022/02/02 01:09:22;;;;;;;2.80;2.30;;;;;;;6.82;100.00;97939.09;5103396;28;20249;-69
2022/02/02 01:17:47;;;;;;;5.00;2.70;;;;;;;6.79;100.00;97963.75;5085370;28;20307;-69
2022/02/02 01:20:30;;;;;;;4.57;3.00;;;;;;;6.84;100.00;97972.22;5086709;28;20671;-69
2022/02/02 01:28:26;;;;;;;5.53;2.67;;;;;;;6.82;100.00;97974.09;5090162;28;20301;-70
2022/02/02 01:30:54;;;;;;;6.80;2.60;;;;;;;6.87;100.00;97971.22;5088705;28;20214;-70
2022/02/02 01:33:21;;;;;;;7.73;3.60;;;;;;;6.87;100.00;97964.19;5090186;28;20636;-69
2022/02/02 01:35:49;;;;;;;6.07;2.77;;;;;;;6.87;100.00;97961.56;5089933;28;20712;-70
2022/02/02 01:38:16;;;;;;;3.80;2.33;;;;;;;6.93;100.00;97973.50;5089799;28;20665;-70
2022/02/02 01:40:46;;;;;;;4.07;2.57;;;;;;;6.95;100.00;97966.41;5090092;28;20248;-70
2022/02/02 01:43:17;;;;;;;3.00;2.10;;;;;;;6.99;100.00;97974.00;5083629;28;20678;-69
2022/02/02 01:45:48;;;;;;;3.60;2.27;;;;;;;7.11;100.00;97983.81;5090071;28;20220;-70
2022/02/02 01:48:23;;;;;;;4.87;2.80;;;;;;;7.10;100.00;97984.75;5083630;28;20229;-70
2022/02/02 01:51:01;;;;;;;4.10;1.90;;;;;;;7.19;100.00;97992.09;5089985;28;20216;-70
2022/02/02 01:53:41;;;;;;;3.63;1.43;;;;;;;7.01;100.00;97993.13;5084313;28;20255;-70
2022/02/02 01:56:10;;;;;;;2.73;1.50;;;;;;;6.66;100.00;97991.66;5082029;28;20222;-69
2022/02/02 01:59:00;;;;;;;2.70;1.40;;;;;;;6.62;100.00;97992.78;5088470;28;20229;-70
2022/02/02 02:01:28;;;;;;;4.00;1.50;;;;;;;6.46;100.00;97978.78;5084601;28;20275;-70
2022/02/02 02:03:56;;;;;;;2.90;1.60;;;;;;;6.46;100.00;97984.03;5088170;28;20841;-70
2022/02/02 02:06:22;;;;;;;2.37;1.47;;;;;;;6.39;100.00;97971.34;5087014;28;20222;-70
2022/02/02 02:08:49;;;;;;;2.60;1.53;;;;;;;6.35;100.00;97969.81;5088512;28;20218;-70
2022/02/02 02:11:18;;;;;;;4.30;2.53;;;;;;;6.28;100.00;98013.09;5088538;28;20218;-69
2022/02/02 02:14:17;;;;;;;4.93;2.27;;;;;;;6.28;100.00;98011.28;5088855;28;20309;-67
2022/02/02 02:16:41;;;;;;;3.63;1.73;;;;;;;5.79;100.00;98012.16;5087550;28;20248;-68
2022/02/02 02:19:09;;;;;;;2.50;1.73;;;;;;;5.51;100.00;98005.81;5089057;28;20217;-69
2022/02/02 02:21:35;;;;;;;2.13;1.87;;;;;;;5.27;100.00;98007.03;5087581;28;20223;-68
2022/02/02 02:24:04;;;;;;;3.57;1.83;;;;;;;5.20;100.00;98001.25;5087360;28;20217;-64
2022/02/02 02:26:32;;;;;;;3.13;2.00;;;;;;;5.11;100.00;98006.97;5075306;28;20712;-64
2022/02/02 02:29:16;;;;;;;4.60;2.23;;;;;;;5.12;100.00;97998.19;5075435;28;20654;-64
2022/02/02 02:31:53;;;;;;;5.10;2.87;;;;;;;5.05;100.00;98002.03;5071109;28;20305;-64
2022/02/02 02:34:32;;;;;;;4.20;2.90;;;;;;;5.05;100.00;97981.06;5073326;28;20314;-64
2022/02/02 02:37:30;;;;;;;6.13;3.30;;;;;;;5.03;100.00;97993.41;5075372;28;20705;-65
2022/02/02 02:40:14;;;;;;;5.57;3.67;;;;;;;5.03;100.00;97984.69;5075504;28;20211;-65
2022/02/02 02:56:24;;;;;;;14.53;7.60;;;;;;;5.47;100.00;97960.56;5069660;28;20219;-67
2022/02/02 02:58:59;;;;;;;15.10;8.33;;;;;;;5.43;100.00;97966.06;5070953;28;20224;-67
2022/02/02 03:01:55;;;;;;;13.97;8.83;;;;;;;5.49;100.00;97966.56;5075223;28;20220;-67
2022/02/02 03:31:57;;;;;;;13.23;5.33;;;;;;;6.13;100.00;97983.28;5068496;28;20306;-67
2022/02/02 03:34:52;;;;;;;12.07;5.43;;;;;;;6.16;100.00;97985.72;5074201;28;20711;-67
2022/02/02 03:57:07;;;;;;;13.10;4.13;;;;;;;5.91;100.00;97993.19;5077537;28;20226;-68
2022/02/02 03:59:41;;;;;;;9.60;4.10;;;;;;;5.98;100.00;97991.94;5077251;28;20282;-68
2022/02/02 04:02:28;;;;;;;11.07;4.23;;;;;;;6.11;100.00;97987.72;5080521;28;20228;-68
2022/02/02 04:05:19;;;;;;;9.40;3.20;;;;;;;6.04;100.00;97988.16;5075950;28;20304;-68
2022/02/02 04:07:50;;;;;;;10.07;4.27;;;;;;;6.06;100.00;97995.03;5079522;28;20666;-68
2022/02/02 04:10:18;;;;;;;11.07;4.53;;;;;;;6.00;100.00;97989.25;5078863;28;20215;-68
2022/02/02 04:12:53;;;;;;;10.37;3.97;;;;;;;6.00;100.00;98000.59;5073983;28;20237;-68
2022/02/02 04:37:36;;;;;;;13.00;4.20;;;;;;;6.26;100.00;98023.66;5066886;28;20219;-68
2022/02/02 04:56:54;;;;;;;10.03;3.43;;;;;;;6.59;100.00;97974.56;5070541;28;20213;-69
2022/02/02 04:59:30;;;;;;;9.13;4.27;;;;;;;6.50;100.00;97985.56;5070245;28;20303;-68
2022/02/02 05:02:43;;;;;;;9.00;3.43;;;;;;;6.35;100.00;98007.41;5075501;28;20329;-69
2022/02/02 05:05:33;;;;;;;11.50;3.47;;;;;;;6.32;100.00;97999.72;5056417;28;20244;-69
2022/02/02 05:08:07;;;;;;;15.00;3.97;;;;;;;6.30;100.00;98014.66;5055496;28;20603;-69
2022/02/02 05:10:43;;;;;;;7.93;3.67;;;;;;;6.20;100.00;98029.25;5063828;28;20220;-69
2022/02/02 05:16:07;;;;;;;8.30;3.47;;;;;;;6.35;100.00;98027.56;5055336;28;20218;-70
2022/02/02 05:18:58;;;;;;;8.47;3.50;;;;;;;6.43;100.00;98044.59;5065052;28;20245;-71
2022/02/02 05:22:09;;;;;;;8.47;3.90;;;;;;;6.46;100.00;98057.53;5059375;28;20286;-71
2022/02/02 05:41:55;;;;;;;9.13;3.37;;;;;;;6.41;100.00;98035.13;5037449;28;20265;-71
2022/02/02 05:52:44;;;;;;;13.57;3.30;;;;;;;6.04;100.00;98057.19;4953726;28;20242;-70
2022/02/02 05:55:12;;;;;;;8.70;3.03;;;;;;;6.09;100.00;98031.56;5008214;28;20577;-70
2022/02/02 05:57:42;;;;;;;9.97;2.87;;;;;;;6.14;100.00;98034.81;5062217;28;20214;-70
2022/02/02 06:00:10;;;;;;;7.87;3.20;;;;;;;6.21;100.00;98051.06;5064934;28;20210;-70
2022/02/02 06:02:39;;;;;;;6.67;2.80;;;;;;;6.19;100.00;98040.66;5061744;28;20591;-70
2022/02/02 06:05:08;;;;;;;9.90;3.13;;;;;;;6.17;100.00;98039.88;5060976;28;20742;-70
2022/02/02 06:07:36;;;;;;;10.30;2.83;;;;;;;6.20;100.00;98049.38;5062943;28;20235;-70
2022/02/02 06:10:05;;;;;;;9.63;3.87;;;;;;;6.26;100.00;98057.78;5064780;28;20214;-70
2022/02/02 06:12:33;;;;;;;11.43;3.30;;;;;;;6.32;100.00;98067.09;5060634;28;20268;-70
2022/02/02 06:15:02;;;;;;;6.67;2.90;;;;;;;6.42;100.00;98045.50;5060432;28;20335;-70
2022/02/02 06:17:29;;;;;;;9.37;2.83;;;;;;;6.50;100.00;98045.97;5061279;28;20675;-70
2022/02/02 06:19:57;;;;;;;8.63;3.43;;;;;;;6.55;100.00;98057.06;5064543;28;20223;-70
2022/02/02 06:22:32;;;;;;;12.20;3.30;;;;;;;6.66;100.00;98057.31;5058373;28;20223;-70
2022/02/02 06:25:05;;;;;;;11.00;4.03;;;;;;;6.77;100.00;98054.94;5060748;28;20596;-69
2022/02/02 06:27:36;;;;;;;11.13;3.13;;;;;;;6.76;100.00;98055.88;5052089;28;20218;-69
2022/02/02 06:30:06;;;;;;;9.10;3.60;;;;;;;6.75;100.00;98064.69;5062174;28;20210;-70
2022/02/02 06:32:37;;;;;;;8.60;3.50;;;;;;;6.77;100.00;98078.56;5053409;28;20244;-70
2022/02/02 06:35:06;;;;;;;11.70;3.87;;;;;;;6.82;100.00;98079.19;5061996;28;20214;-69
2022/02/02 06:37:39;;;;;;;9.10;3.50;;;;;;;6.75;100.00;98085.69;5064277;28;20214;-69
2022/02/02 06:40:06;;;;;;;10.63;3.10;;;;;;;6.74;100.00;98085.78;5057727;28;20214;-69
2022/02/02 06:42:34;;;;;;;10.53;3.27;;;;;;;6.69;100.00;98086.03;5058474;28;20691;-69
2022/02/02 06:45:01;;;;;;;12.83;3.63;;;;;;;6.70;100.00;98097.38;5062738;28;20215;-69
2022/02/02 06:47:27;;;;;;;10.27;3.07;;;;;;;6.68;100.00;98084.34;5063372;28;20210;-69
2022/02/02 06:50:03;;;;;;;8.97;3.57;;;;;;;6.71;100.00;98093.84;5061298;28;20238;-70
2022/02/02 06:52:37;;;;;;;13.70;3.87;;;;;;;6.70;100.00;98113.13;5058569;28;20344;-69
2022/02/02 06:55:11;;;;;;;11.20;3.40;;;;;;;6.70;100.00;98119.25;5050362;28;20210;-70
2022/02/02 06:57:55;;;;;;;14.57;3.43;;;;;;;6.69;100.00;98138.56;5059866;28;20224;-69
2022/02/02 07:00:33;;;;;;;8.40;3.87;;;;;;;6.73;100.00;98140.06;5054204;28;20210;-70
2022/02/02 07:03:23;;;;;;;14.10;3.23;;;;;;;6.73;100.00;98145.31;5051559;28;20297;-70
2022/02/02 07:06:04;;;;;;;9.73;3.53;;;;;;;6.72;100.00;98164.66;5057321;28;20251;-69
2022/02/02 07:08:38;;;;;;;12.07;3.43;;;;;;;6.74;100.00;98162.81;5058395;28;20222;-69
2022/02/02 07:11:19;;;;;;;12.50;3.60;;;;;;;6.77;100.00;98178.38;5061898;28;20256;-69
2022/02/02 07:13:58;;;;;;;8.63;3.00;;;;;;;6.75;100.00;98154.00;5052878;28;20304;-70
2022/02/02 07:16:39;;;;;;;7.43;3.13;;;;;;;6.75;100.00;98146.09;5060501;28;20331;-69
2022/02/02 07:19:17;;;;;;;10.87;3.47;;;;;;;6.78;100.00;98138.06;5061100;28;20301;-69
2022/02/02 07:22:04;;;;;;;11.10;4.27;;;;;;;6.76;100.00;98166.19;5052017;28;20223;-69
2022/02/02 07:30:10;;;;;;;9.47;3.47;;;;;;;6.85;100.00;98159.59;5058601;28;20218;-70
2022/02/02 07:32:42;;;;;;;12.47;3.73;;;;;;;6.85;100.00;98185.88;5061695;28;20872;-70
2022/02/02 07:35:14;;;;;;;10.10;3.57;;;;;;;6.87;100.00;98179.59;5054182;28;20559;-69
2022/02/02 07:37:46;;;;;;;10.10;3.30;;;;;;;6.90;100.00;98178.59;5058535;28;20219;-70
2022/02/02 07:40:14;;;;;;;10.77;3.67;;;;;;;6.98;100.00;98177.25;5061491;28;20275;-70
2022/02/02 07:42:46;;;;;;;10.67;3.83;;;;;;;7.03;100.00;98196.22;5060697;28;20711;-70
2022/02/02 07:45:13;;;;;;;13.73;3.60;;;;;;;7.07;100.00;98192.50;5057952;28;20704;-70
2022/02/02 07:47:41;;;;;;;9.27;3.43;;;;;;;6.99;100.00;98184.19;5058330;28;20219;-70
2022/02/02 07:50:10;;;;;;;11.73;3.90;;;;;;;6.82;100.00;98192.13;5061834;28;20283;-70
2022/02/02 07:52:37;;;;;;;11.63;4.47;;;;;;;6.73;100.00;98205.72;5059448;28;20268;-69
2022/02/02 07:55:06;;;;;;;12.50;4.10;;;;;;;6.66;100.00;98200.91;5057954;28;20265;-70
2022/02/02 07:57:34;;;;;;;14.00;4.83;;;;;;;6.65;100.00;98194.78;5058637;28;20219;-70
2022/02/02 08:00:08;;;;;;;7.10;4.73;;;;;;;6.62;100.00;98200.22;5061766;28;20297;-70
2022/02/02 08:02:47;;;;;;;12.40;4.27;;;;;;;6.71;100.00;98204.16;5057454;28;20230;-69
2022/02/02 08:05:16;;;;;;;15.77;5.00;;;;;;;6.70;100.00;98200.66;5057987;28;20590;-70
2022/02/02 08:07:48;;;;;;;12.70;3.97;;;;;;;6.76;100.00;98208.22;5061068;28;20213;-70
2022/02/02 08:10:18;;;;;;;11.10;3.90;;;;;;;6.79;100.00;98218.53;5060055;28;20263;-70
2022/02/02 08:12:50;;;;;;;10.23;4.50;;;;;;;6.80;100.00;98222.03;5057738;28;20223;-70
2022/02/02 08:15:21;;;;;;;9.13;4.20;;;;;;;6.85;100.00;98212.13;5058626;28;20266;-70
2022/02/02 08:17:48;;;;;;;14.57;4.13;;;;;;;6.84;100.00;98232.28;5059644;28;20264;-70
2022/02/02 08:20:16;;;;;;;9.27;3.67;;;;;;;6.85;100.00;98241.88;5056850;28;20220;-70
2022/02/02 08:22:42;;;;;;;13.07;4.00;;;;;;;6.98;100.00;98235.06;5057043;28;20214;-70
2022/02/02 08:25:10;;;;;;;12.13;4.73;;;;;;;6.93;100.00;98247.59;5057563;28;20709;-70
2022/02/02 08:27:40;;;;;;;11.73;3.90;;;;;;;6.88;100.00;98249.59;5045716;28;20223;-69
2022/02/02 08:30:09;;;;;;;8.83;3.80;;;;;;;6.87;100.00;98253.16;5049329;28;20584;-70
2022/02/02 08:32:43;;;;;;;8.57;3.67;;;;;;;6.87;100.00;98237.41;5051482;28;20227;-70
2022/02/02 08:35:10;;;;;;;10.60;3.70;;;;;;;6.87;100.00;98247.91;5059225;28;20218;-70
2022/02/02 08:37:40;;;;;;;13.97;4.13;;;;;;;6.93;100.00;98239.69;5061050;28;20307;-72
2022/02/02 08:40:20;;;;;;;9.93;4.30;;;;;;;6.98;100.00;98245.56;5059765;28;20219;-68
2022/02/02 08:42:47;;;;;;;10.93;4.13;;;;;;;7.01;100.00;98236.69;5061088;28;20211;-71
2022/02/02 08:45:19;;;;;;;7.83;3.47;;;;;;;7.08;100.00;98244.13;5065121;28;20211;-70
2022/02/02 08:47:53;;;;;;;13.13;4.77;;;;;;;7.13;100.00;98241.25;5062789;28;20214;-71
2022/02/02 08:50:26;;;;;;;9.47;3.40;;;;;;;7.17;100.00;98256.78;5054383;28;20218;-70
2022/02/02 08:52:56;;;;;;;13.47;3.70;;;;;;;7.19;100.00;98260.19;5063584;28;20721;-69
2022/02/02 08:55:48;;;;;;;13.67;3.80;;;;;;;7.19;100.00;98249.66;5063461;28;20221;-70
2022/02/02 08:58:21;;;;;;;11.50;3.33;;;;;;;7.24;100.00;98268.66;5054026;28;20231;-70
2022/02/02 09:00:49;;;;;;;14.67;3.57;;;;;;;7.25;100.00;98265.09;5064166;28;20848;-71
2022/02/02 09:06:01;;;;;;;9.80;3.50;;;;;;;7.21;100.00;98289.00;5054449;28;20221;-69
2022/02/02 09:08:30;;;;;;;11.03;3.50;;;;;;;7.20;100.00;98288.16;5061561;28;20218;-70
2022/02/02 09:24:46;;;;;;;10.30;3.33;;;;;;;7.55;100.00;98287.09;5039267;28;20234;-70
2022/02/02 09:35:23;;;;;;;11.73;3.37;;;;;;;7.65;100.00;98312.00;5058628;28;20269;-71
2022/02/02 09:37:49;;;;;;;18.33;3.90;;;;;;;7.49;100.00;98314.59;5061633;28;20229;-71
2022/02/02 09:40:48;;;;;;;12.13;4.00;;;;;;;7.46;100.00;98327.03;5065026;28;20215;-71
2022/02/02 09:43:04;;;;;;;12.33;3.70;;;;;;;7.44;100.00;98339.44;5061092;28;20796;-71
2022/02/02 09:45:31;;;;;;;14.27;3.77;;;;;;;7.34;100.00;98319.84;5061413;28;20216;-71
2022/02/02 09:48:04;;;;;;;16.33;4.60;;;;;;;7.31;100.00;98330.50;5062493;28;20225;-71
2022/02/02 09:50:35;;;;;;;13.07;3.90;;;;;;;7.37;100.00;98335.44;5064542;28;20246;-71
2022/02/02 09:53:05;;;;;;;12.90;3.50;;;;;;;7.50;100.00;98350.47;5060945;28;20242;-71
2022/02/02 09:55:51;;;;;;;9.80;3.37;;;;;;;7.71;100.00;98349.31;5061599;28;20235;-70
2022/02/02 09:58:54;;;;;;;14.20;4.03;;;;;;;8.04;96.82;98354.50;5064889;28;20217;-71
2022/02/02 10:01:29;;;;;;;7.93;2.77;;;;;;;8.18;93.73;98349.31;5055936;28;20266;-71
2022/02/02 10:04:17;;;;;;;12.57;3.73;;;;;;;8.26;93.59;98347.16;5051746;28;20311;-71
2022/02/02 10:06:57;;;;;;;11.27;3.40;;;;;;;8.27;93.46;98348.84;5058463;28;20212;-71
2022/02/02 10:09:46;;;;;;;12.80;4.17;;;;;;;8.38;92.62;98349.09;5062130;28;20220;-71
2022/02/02 10:12:45;;;;;;;12.83;3.90;;;;;;;8.40;92.71;98350.66;5064022;28;20212;-71
2022/02/02 10:15:16;;;;;;;10.37;3.30;;;;;;;8.47;92.99;98373.13;5055936;28;20354;-71
2022/02/02 10:17:44;;;;;;;10.13;3.50;;;;;;;8.38;95.16;98362.25;5064174;28;20221;-71
2022/02/02 10:20:19;;;;;;;8.43;3.30;;;;;;;8.27;92.57;98390.97;5055879;28;20212;-70
2022/02/02 10:22:49;;;;;;;10.30;3.53;;;;;;;8.25;94.16;98382.28;5053588;28;20222;-71
2022/02/02 10:25:24;;;;;;;7.67;3.13;;;;;;;8.43;89.95;98381.25;5054075;28;20219;-70
2022/02/02 10:27:51;;;;;;;11.77;3.30;;;;;;;8.55;91.34;98375.28;5053557;28;20219;-70
2022/02/02 10:30:19;;;;;;;8.03;3.17;;;;;;;8.52;91.67;98376.31;5053187;28;20223;-71
2022/02/02 10:32:48;;;;;;;11.63;3.30;;;;;;;8.41;92.00;98373.47;5060412;28;20216;-70
2022/02/02 10:35:31;;;;;;;12.83;3.73;;;;;;;8.29;91.18;98373.28;5063700;28;20235;-70
2022/02/02 10:38:00;;;;;;;10.53;3.63;;;;;;;8.37;92.18;98385.09;5062202;28;20254;-70
2022/02/02 10:40:44;;;;;;;9.97;3.50;;;;;;;8.38;91.82;98378.06;5058712;28;20208;-70
2022/02/02 10:43:22;;;;;;;8.93;3.30;;;;;;;8.31;92.51;98376.69;5049606;28;20215;-70
2022/02/02 10:45:49;;;;;;;10.90;3.27;;;;;;;8.30;93.35;98390.78;5061907;28;20648;-70
2022/02/02 10:48:28;;;;;;;12.80;3.40;;;;;;;8.27;92.33;98390.97;5060185;28;20326;-70
2022/02/02 10:51:03;;;;;;;11.50;3.57;;;;;;;8.22;92.85;98387.75;5062617;28;20751;-70
2022/02/02 10:53:40;;;;;;;11.47;4.13;;;;;;;8.21;94.38;98391.31;5063211;28;20392;-70
2022/02/02 10:56:35;;;;;;;10.93;3.53;;;;;;;8.32;92.81;98378.41;5059930;28;20215;-70
2022/02/02 10:59:18;;;;;;;12.93;4.00;;;;;;;8.31;92.44;98388.06;5051018;28;20222;-70
2022/02/02 11:01:49;;;;;;;10.83;3.30;;;;;;;8.35;95.28;98372.94;5059106;28;20690;-70
2022/02/02 11:07:01;;;;;;;9.20;3.20;;;;;;;8.43;90.50;98365.44;5051106;28;20298;-70
2022/02/02 11:09:32;;;;;;;9.40;3.60;;;;;;;8.34;91.94;98364.19;5060805;28;20219;-70
2022/02/02 11:11:58;;;;;;;10.83;3.20;;;;;;;8.37;88.92;98365.81;5053993;28;20208;-71
2022/02/02 11:14:34;;;;;;;13.10;3.23;;;;;;;8.34;87.64;98380.00;5055684;28;20318;-70
2022/02/02 11:17:07;;;;;;;9.93;3.07;;;;;;;8.37;86.69;98376.34;5063300;28;20207;-69
2022/02/02 11:19:37;;;;;;;11.50;3.83;;;;;;;8.63;88.60;98381.81;5057881;28;20216;-71
2022/02/02 11:22:30;;;;;;;9.63;3.10;;;;;;;8.80;87.57;98380.84;5059088;28;20216;-71
2022/02/02 11:25:00;;;;;;;11.07;3.40;;;;;;;8.88;87.03;98383.91;5062214;28;20219;-71
2022/02/02 11:27:35;;;;;;;9.13;3.17;;;;;;;8.81;85.59;98386.03;5059146;28;20576;-70
2022/02/02 11:30:02;;;;;;;8.97;3.00;;;;;;;8.75;85.28;98373.22;5060424;28;20249;-71
2022/02/02 11:32:42;;;;;;;9.47;3.97;;;;;;;8.85;84.24;98387.56;5062771;28;20219;-69
2022/02/02 11:35:30;;;;;;;10.53;3.53;;;;;;;8.83;84.09;98380.69;5054516;28;20360;-70
2022/02/02 11:37:58;;;;;;;7.73;3.20;;;;;;;8.84;86.16;98392.91;5061054;28;20570;-70
2022/02/02 11:40:27;;;;;;;10.77;3.30;;;;;;;8.79;86.65;98387.06;5063054;28;20220;-70
2022/02/02 11:42:58;;;;;;;10.03;3.90;;;;;;;8.77;85.73;98396.84;5060576;28;20230;-70
2022/02/02 11:45:37;;;;;;;14.83;3.87;;;;;;;8.91;87.07;98388.97;5053529;28;20223;-70
2022/02/02 11:48:08;;;;;;;9.00;3.43;;;;;;;9.08;84.56;98391.47;5055561;28;20215;-70
2022/02/02 11:50:47;;;;;;;8.63;3.00;;;;;;;9.07;83.33;98385.34;5061970;28;20211;-70
2022/02/02 11:53:33;;;;;;;12.43;3.60;;;;;;;8.98;83.36;98385.03;5053299;28;20239;-70
2022/02/02 11:56:06;;;;;;;10.37;3.30;;;;;;;9.00;82.78;98388.47;5048749;28;20238;-70
2022/02/02 11:58:34;;;;;;;12.23;3.70;;;;;;;8.99;83.64;98392.03;5061179;28;20211;-70
2022/02/02 12:01:10;;;;;;;9.13;3.40;;;;;;;8.88;85.76;98384.72;5057598;28;20216;-70
2022/02/02 12:03:45;;;;;;;8.23;3.20;;;;;;;8.88;86.99;98390.00;5061514;28;20218;-71
2022/02/02 12:06:24;;;;;;;15.07;3.77;;;;;;;8.74;86.72;98391.72;5062523;28;20802;-70
2022/02/02 12:09:00;;;;;;;8.57;3.00;;;;;;;8.70;88.21;98393.69;5057915;28;20739;-70
2022/02/02 12:19:00;;;;;;;13.90;4.30;;;;;;;8.71;88.39;98389.28;5060889;28;20839;-70
2022/02/02 12:48:44;;;;;;;12.43;3.43;;;;;;;8.90;84.64;98440.88;5062185;28;20239;-70
2022/02/02 12:54:23;;;;;;;12.30;3.40;;;;;;;8.74;88.09;98439.16;5058410;28;20366;-71
2022/02/02 12:56:54;;;;;;;12.07;3.30;;;;;;;8.69;87.18;98434.16;5064805;28;20681;-70
2022/02/02 12:59:39;;;;;;;11.33;3.60;;;;;;;8.46;88.21;98439.88;5065823;28;20218;-70
2022/02/02 13:02:09;;;;;;;9.53;3.37;;;;;;;8.16;91.04;98445.97;5056386;28;20557;-71
2022/02/02 13:04:37;;;;;;;14.53;4.07;;;;;;;7.66;96.70;98459.19;5063061;28;20227;-70
2022/02/02 13:07:11;;;;;;;11.67;3.60;;;;;;;7.38;100.00;98471.22;5065998;28;20216;-70
2022/02/02 13:09:39;;;;;;;11.60;3.43;;;;;;;7.25;100.00;98478.03;5059738;28;20218;-71
2022/02/02 13:12:22;;;;;;;12.60;3.77;;;;;;;7.24;100.00;98471.06;5062141;28;20586;-71
2022/02/02 13:21:02;;;;;;;15.00;4.10;;;;;;;7.21;100.00;98483.53;5129708;27;20553;-72
2022/02/02 13:26:27;;;;;;;15.13;4.40;;;;;;;6.99;100.00;98488.13;5127685;27;20220;-73
2022/02/02 13:29:01;;;;;;;16.37;4.10;;;;;;;6.79;100.00;98496.97;5129791;27;20220;-70
2022/02/02 13:31:45;;;;;;;11.67;3.57;;;;;;;6.78;100.00;98505.78;5129558;28;20220;-70
2022/02/02 13:34:26;;;;;;;9.23;3.30;;;;;;;6.79;100.00;98496.97;5129920;27;20209;-73
2022/02/02 13:37:21;;;;;;;15.30;3.83;;;;;;;6.90;100.00;98507.81;5129835;27;20260;-72
2022/02/02 13:42:59;;;;;;;13.33;4.37;;;;;;;7.18;100.00;98521.34;5129774;27;20610;-71
2022/02/02 13:51:25;;;;;;;12.67;4.40;;;;;;;7.63;100.00;98526.91;5127516;28;20221;-70
2022/02/02 13:54:12;;;;;;;9.53;4.00;;;;;;;7.93;100.00;98528.81;5126130;27;20251;-69
2022/02/02 14:02:17;;;;;;;7.73;2.93;;;;;;;8.38;97.06;98530.81;5126518;28;20591;-71
2022/02/02 14:05:02;;;;;;;6.77;2.83;;;;;;;8.42;96.72;98563.94;5127517;28;20245;-70
2022/02/02 14:07:44;;;;;;;9.60;2.80;;;;;;;8.38;98.89;98568.50;5128160;28;20217;-70
2022/02/02 14:10:29;;;;;;;8.77;3.00;;;;;;;8.24;99.00;98564.91;5128078;27;20275;-70
2022/02/02 14:32:05;;;;;;;8.17;3.17;;;;;;;8.22;100.00;98566.78;5113777;28;20302;-69
2022/02/02 14:34:31;;;;;;;9.40;3.80;;;;;;;8.32;100.00;98562.75;5114236;28;20525;-69
2022/02/02 14:36:58;;;;;;;8.30;2.97;;;;;;;8.47;100.00;98564.53;5114066;28;20217;-69
2022/02/02 14:39:28;;;;;;;7.63;3.20;;;;;;;8.54;100.00;98568.53;5112261;27;20342;-69
2022/02/02 14:42:05;;;;;;;10.53;3.60;;;;;;;8.41;100.00;98562.22;5112729;28;20218;-69
2022/02/02 14:44:36;;;;;;;13.60;3.73;;;;;;;8.18;100.00;98565.19;5113861;28;20214;-69
2022/02/02 14:47:07;;;;;;;12.90;4.03;;;;;;;8.11;100.00;98563.81;5107701;28;20233;-69
2022/02/02 14:49:42;;;;;;;11.83;3.63;;;;;;;8.11;100.00;98563.81;5113914;27;20220;-69
2022/02/02 14:52:18;;;;;;;9.73;3.90;;;;;;;8.03;100.00;98566.03;5113678;28;20217;-69
2022/02/02 14:55:09;;;;;;;13.67;4.83;;;;;;;7.85;100.00;98562.53;5113637;28;20275;-69
2022/02/02 15:23:47;;;;;;;6.37;3.20;;;;;;;6.89;100.00;98597.25;5107616;28;20757;-72
2022/02/02 15:27:55;;;;;;;7.80;3.20;;;;;;;6.89;100.00;98600.72;5059352;28;20250;-68
2022/02/02 15:30:28;;;;;;;10.30;2.90;;;;;;;6.88;100.00;98606.03;5107404;28;20214;-69
2022/02/02 15:32:57;;;;;;;7.37;2.90;;;;;;;6.84;100.00;98615.00;5110274;28;20504;-68
2022/02/02 15:35:25;;;;;;;9.67;3.30;;;;;;;6.78;100.00;98616.13;5110809;28;20259;-69
2022/02/02 15:37:58;;;;;;;6.53;2.83;;;;;;;6.81;100.00;98629.13;5110645;28;20214;-67
2022/02/02 15:40:29;;;;;;;6.63;2.63;;;;;;;6.76;100.00;98628.50;5110925;28;20237;-70
2022/02/02 15:43:07;;;;;;;7.20;2.77;;;;;;;6.65;100.00;98625.50;5112020;28;20222;-68
2022/02/02 15:59:34;;;;;;;7.57;3.20;;;;;;;6.23;100.00;98626.59;5111770;28;20245;-70
2022/02/02 16:02:13;;;;;;;5.60;3.00;;;;;;;6.10;100.00;98631.50;5112132;28;20223;-70
2022/02/02 16:04:40;;;;;;;5.87;3.00;;;;;;;6.02;100.00;98633.63;5113308;28;20241;-70
2022/02/02 16:07:10;;;;;;;7.00;3.20;;;;;;;6.00;100.00;98632.84;5112947;28;20216;-69
2022/02/02 16:09:46;;;;;;;6.53;3.80;;;;;;;5.92;100.00;98627.06;5112175;28;20224;-70
2022/02/02 16:12:18;;;;;;;8.60;3.03;;;;;;;5.87;100.00;98631.63;5104625;28;20307;-70
2022/02/02 16:14:48;;;;;;;4.60;3.20;;;;;;;5.86;100.00;98632.56;5110919;28;20245;-69
2022/02/02 16:31:30;;;;;;;10.87;4.30;;;;;;;5.72;100.00;98629.63;5110930;28;20250;-69
2022/02/02 16:34:37;;;;;;;6.60;3.67;;;;;;;5.69;100.00;98642.03;5101106;28;20538;-69
2022/02/02 16:36:54;;;;;;;6.67;3.93;;;;;;;5.65;100.00;98643.06;5112200;28;20247;-70
2022/02/02 16:39:23;;;;;;;7.87;3.80;;;;;;;5.64;100.00;98652.72;5112497;28;20216;-68
2022/02/02 16:44:43;;;;;;;10.80;6.20;;;;;;;5.61;100.00;98662.50;5081656;28;20266;-70
2022/02/02 16:47:10;;;;;;;10.40;6.47;;;;;;;5.59;100.00;98675.66;5111520;28;20211;-70
2022/02/02 16:49:38;;;;;;;7.60;5.30;;;;;;;5.65;100.00;98675.41;5111346;28;20218;-71
2022/02/02 16:52:06;;;;;;;8.53;4.63;;;;;;;5.85;100.00;98677.22;5108904;28;20225;-70
2022/02/02 16:54:37;;;;;;;9.53;4.03;;;;;;;5.89;100.00;98671.78;5104126;28;20671;-69
2022/02/02 16:57:20;;;;;;;7.20;3.77;;;;;;;6.00;100.00;98666.94;5099082;28;20217;-70
2022/02/02 17:29:55;;;;;;;5.77;3.20;;;;;;;5.61;100.00;98688.69;5110238;28;20254;-69
2022/02/02 17:32:33;;;;;;;7.60;3.80;;;;;;;5.60;100.00;98702.69;5107064;28;20215;-69
2022/02/02 17:35:17;;;;;;;4.43;3.60;;;;;;;5.56;100.00;98701.97;5101302;28;20697;-70
2022/02/02 17:37:51;;;;;;;5.60;4.33;;;;;;;5.51;100.00;98709.16;5111171;28;20254;-70
2022/02/02 17:40:32;;;;;;;5.27;3.53;;;;;;;5.48;100.00;98714.56;5106891;28;20230;-70
2022/02/02 17:43:16;;;;;;;6.43;3.97;;;;;;;5.48;100.00;98717.16;5092369;28;20207;-69
2022/02/02 17:45:54;;;;;;;6.53;4.40;;;;;;;5.46;100.00;98713.75;5107871;28;20682;-69
2022/02/02 18:13:47;;;;;;;5.73;3.73;;;;;;;5.84;100.00;98718.34;5112731;28;20212;-69